Time;durP1;ratioP1;P1;durP2;ratioP2;P2;SDS_P1;SDS_P2;PMS_P1;PMS_P2;Temp;Humidity;BMP_temperature;BMP_pressure;BME280_temperature;BME280_humidity;BME280_pressure;Samples;Min_cycle;Max_cycle;Signal;HPM_P1;HPM_P2
2022/02/28 00:00:55;;;;;;;7.50;5.45;;;;;;;3.02;84.79;103046.50;5064334;28;20078;-76
2022/02/28 00:03:20;;;;;;;10.88;6.05;;;;;;;3.01;84.81;103052.50;5075466;28;20029;-75
2022/02/28 00:05:46;;;;;;;12.95;5.88;;;;;;;3.02;84.78;103053.41;5048884;28;20533;-75
2022/02/28 00:08:12;;;;;;;8.85;5.10;;;;;;;3.02;84.54;103043.00;5063224;28;20029;-74
2022/02/28 00:10:37;;;;;;;11.93;5.88;;;;;;;2.98;84.78;103046.13;5057197;28;20098;-75
2022/02/28 00:13:03;;;;;;;14.07;5.53;;;;;;;2.98;84.23;103047.03;5051830;28;20151;-75
2022/02/28 00:15:30;;;;;;;9.98;6.03;;;;;;;2.97;84.72;103055.63;5059464;28;20024;-74
2022/02/28 00:17:55;;;;;;;12.85;5.85;;;;;;;2.94;84.75;103059.66;5058866;28;20545;-74
2022/02/28 00:20:21;;;;;;;11.60;5.32;;;;;;;2.91;84.92;103051.63;5049228;28;20028;-76
2022/02/28 00:22:49;;;;;;;9.40;5.60;;;;;;;2.91;85.09;103055.13;5071792;28;20040;-76
2022/02/28 00:25:15;;;;;;;13.20;5.65;;;;;;;2.92;84.66;103056.03;5045264;28;20040;-75
2022/02/28 00:27:41;;;;;;;14.10;5.95;;;;;;;2.90;84.57;103062.78;5047364;28;20032;-76
2022/02/28 00:30:08;;;;;;;11.77;5.72;;;;;;;2.88;85.01;103062.66;5058161;28;20029;-76
2022/02/28 00:32:34;;;;;;;14.40;5.97;;;;;;;2.83;85.27;103061.38;5061250;28;20456;-76
2022/02/28 00:34:59;;;;;;;9.15;5.22;;;;;;;2.82;85.22;103063.06;5053066;28;20028;-75
2022/02/28 00:37:25;;;;;;;10.65;5.63;;;;;;;2.77;85.53;103048.75;5056376;28;20036;-76
2022/02/28 00:39:51;;;;;;;10.32;5.90;;;;;;;2.74;85.41;103052.78;5042904;28;20032;-75
2022/02/28 00:42:16;;;;;;;13.80;5.82;;;;;;;2.68;85.89;103051.47;5042511;28;20516;-76
2022/02/28 00:44:42;;;;;;;15.68;5.65;;;;;;;2.68;85.52;103055.78;5069147;28;20021;-76
2022/02/28 00:47:08;;;;;;;18.83;6.55;;;;;;;2.61;86.04;103049.16;5073087;28;20186;-76
2022/02/28 00:49:34;;;;;;;9.52;5.65;;;;;;;2.60;86.08;103062.91;5047926;28;20122;-75
2022/02/28 00:51:59;;;;;;;13.50;6.00;;;;;;;2.56;86.51;103071.25;5053523;28;20032;-76
2022/02/28 00:54:27;;;;;;;12.30;6.22;;;;;;;2.50;86.80;103076.84;5054151;28;20417;-75
2022/02/28 00:56:53;;;;;;;11.35;6.15;;;;;;;2.48;86.64;103075.81;5049746;28;20036;-75
2022/02/28 00:59:19;;;;;;;12.88;5.82;;;;;;;2.44;86.97;103083.19;5070818;28;20024;-75
2022/02/28 01:01:44;;;;;;;10.60;5.78;;;;;;;2.40;87.41;103083.69;5057349;28;20033;-76
2022/02/28 01:04:10;;;;;;;10.15;5.90;;;;;;;2.35;88.30;103086.81;5062258;28;20096;-76
2022/02/28 01:06:35;;;;;;;11.85;6.13;;;;;;;2.31;87.60;103089.03;5038861;28;20440;-74
2022/02/28 01:09:01;;;;;;;12.60;5.80;;;;;;;2.25;88.43;103089.41;5058126;28;20056;-74
2022/02/28 01:11:27;;;;;;;12.88;6.32;;;;;;;2.23;89.00;103093.56;5053625;28;20062;-75
2022/02/28 01:13:52;;;;;;;14.10;6.50;;;;;;;2.22;88.49;103089.13;5054710;28;20060;-75
2022/02/28 01:16:18;;;;;;;10.30;5.65;;;;;;;2.23;88.34;103085.75;5052832;28;20025;-76
2022/02/28 01:18:43;;;;;;;10.93;6.53;;;;;;;2.23;88.72;103090.06;5071423;28;20469;-75
2022/02/28 01:21:09;;;;;;;11.48;6.28;;;;;;;2.22;88.78;103091.72;5074017;28;20024;-75
2022/02/28 01:23:34;;;;;;;10.95;6.40;;;;;;;2.22;88.24;103094.31;5065741;28;20029;-75
2022/02/28 01:26:00;;;;;;;12.35;5.93;;;;;;;2.23;87.94;103101.34;5053352;28;20025;-76
2022/02/28 01:28:25;;;;;;;13.38;6.38;;;;;;;2.22;88.61;103089.13;5065004;28;20051;-76
2022/02/28 01:30:50;;;;;;;9.48;5.97;;;;;;;2.20;88.31;103088.09;5053731;28;20032;-75
2022/02/28 01:33:16;;;;;;;13.77;6.43;;;;;;;2.23;88.80;103096.16;5068200;28;20120;-76
2022/02/28 01:35:41;;;;;;;9.38;6.20;;;;;;;2.20;88.76;103085.50;5066361;28;20020;-75
2022/02/28 01:38:07;;;;;;;12.27;6.18;;;;;;;2.18;88.91;103087.03;5054507;28;20051;-75
2022/02/28 01:40:33;;;;;;;9.30;6.05;;;;;;;2.19;88.13;103084.56;5057753;28;20040;-75
2022/02/28 01:42:58;;;;;;;13.15;6.53;;;;;;;2.19;88.59;103083.69;5050126;28;20119;-77
2022/02/28 01:45:24;;;;;;;9.43;5.28;;;;;;;2.17;89.19;103078.34;5069222;28;20024;-77
2022/02/28 01:47:51;;;;;;;13.23;6.57;;;;;;;2.12;88.79;103082.22;5065907;28;20365;-76
2022/02/28 01:50:17;;;;;;;10.90;6.25;;;;;;;2.10;88.54;103083.78;5044860;28;20124;-78
2022/02/28 01:52:44;;;;;;;10.45;5.97;;;;;;;2.10;89.45;103083.78;5054310;28;20066;-77
2022/02/28 01:55:10;;;;;;;10.88;6.30;;;;;;;2.06;88.97;103089.47;5067986;28;20056;-77
2022/02/28 01:57:35;;;;;;;16.27;7.40;;;;;;;2.03;89.30;103081.41;5064129;28;20059;-77
2022/02/28 02:00:04;;;;;;;10.32;6.22;;;;;;;2.00;89.77;103079.47;5058141;28;20115;-77
2022/02/28 02:02:30;;;;;;;10.23;6.00;;;;;;;1.98;89.78;103083.63;5063201;28;20047;-76
2022/02/28 02:04:55;;;;;;;10.68;6.57;;;;;;;1.94;89.04;103086.75;5039619;28;20021;-78
2022/02/28 02:07:20;;;;;;;9.63;6.18;;;;;;;1.92;89.90;103090.88;5073592;28;20074;-78
2022/02/28 02:09:46;;;;;;;11.85;6.20;;;;;;;1.89;89.74;103088.00;5058827;28;20103;-77
2022/02/28 02:12:12;;;;;;;11.32;5.97;;;;;;;1.84;89.84;103073.72;5067717;28;20020;-76
2022/02/28 02:14:38;;;;;;;16.70;7.53;;;;;;;1.81;90.14;103078.63;5058238;28;20032;-75
2022/02/28 02:17:04;;;;;;;14.50;7.25;;;;;;;1.76;89.99;103079.91;5058541;28;20060;-76
2022/02/28 02:19:31;;;;;;;14.73;6.68;;;;;;;1.74;90.29;103073.69;5076334;28;20094;-78
2022/02/28 02:21:57;;;;;;;11.35;6.20;;;;;;;1.68;90.78;103074.97;5055369;28;20056;-77
2022/02/28 02:24:22;;;;;;;12.80;6.40;;;;;;;1.66;91.19;103076.50;5068913;28;20067;-77
2022/02/28 02:26:47;;;;;;;12.75;6.63;;;;;;;1.64;90.82;103080.66;5070774;28;20067;-77
2022/02/28 02:29:13;;;;;;;13.70;7.03;;;;;;;1.58;91.66;103080.09;5067607;28;20021;-76
2022/02/28 02:31:38;;;;;;;18.08;6.43;;;;;;;1.58;92.30;103079.19;5046575;28;20054;-76
2022/02/28 02:34:03;;;;;;;8.73;5.55;;;;;;;1.52;92.15;103084.75;5045145;28;20098;-76
2022/02/28 02:36:28;;;;;;;17.17;7.18;;;;;;;1.49;92.56;103090.56;5063191;28;20028;-77
2022/02/28 02:38:54;;;;;;;16.25;6.45;;;;;;;1.46;92.61;103086.78;5052254;28;20025;-76
2022/02/28 02:41:20;;;;;;;15.13;7.32;;;;;;;1.44;93.25;103083.13;5062044;28;20052;-76
2022/02/28 02:43:46;;;;;;;11.77;6.80;;;;;;;1.39;93.36;103079.22;5053247;28;20021;-76
2022/02/28 02:46:11;;;;;;;11.50;6.45;;;;;;;1.33;92.96;103077.91;5068107;28;20032;-77
2022/02/28 02:48:37;;;;;;;11.27;6.03;;;;;;;1.29;93.35;103075.81;5068752;28;20029;-77
2022/02/28 02:51:02;;;;;;;14.90;6.55;;;;;;;1.31;93.57;103073.34;5073282;28;20487;-76
2022/02/28 02:53:28;;;;;;;15.98;7.00;;;;;;;1.26;93.89;103074.59;5064981;28;20033;-77
2022/02/28 02:55:53;;;;;;;13.93;6.63;;;;;;;1.24;93.70;103074.47;5068155;28;20032;-78
2022/02/28 02:58:19;;;;;;;13.70;7.10;;;;;;;1.21;94.41;103076.78;5071725;28;20119;-78
2022/02/28 03:00:50;;;;;;;12.30;6.38;;;;;;;1.20;94.60;103074.06;5048299;28;20078;-77
2022/02/28 03:03:19;;;;;;;13.68;6.47;;;;;;;1.17;94.77;103065.22;5064406;28;20033;-77
2022/02/28 03:05:46;;;;;;;14.93;6.53;;;;;;;1.14;94.81;103064.94;5072291;28;20086;-77
2022/02/28 03:08:12;;;;;;;13.55;6.03;;;;;;;1.10;94.81;103064.50;5065905;28;20016;-77
2022/02/28 03:10:37;;;;;;;11.77;7.05;;;;;;;1.07;95.12;103072.97;5057790;28;20168;-77
2022/02/28 03:13:03;;;;;;;13.52;7.25;;;;;;;1.03;95.47;103075.09;5071464;28;20412;-76
2022/02/28 03:15:28;;;;;;;12.57;7.00;;;;;;;0.99;95.86;103069.66;5059047;28;20031;-76
2022/02/28 03:17:53;;;;;;;14.80;6.75;;;;;;;0.99;96.09;103064.47;5053874;28;20047;-76
2022/02/28 03:20:19;;;;;;;13.93;7.25;;;;;;;0.95;96.33;103062.38;5056916;28;20428;-77
2022/02/28 03:22:44;;;;;;;11.57;6.18;;;;;;;0.94;96.46;103065.72;5054886;28;20480;-77
2022/02/28 03:25:10;;;;;;;14.55;6.22;;;;;;;0.93;96.77;103069.06;5066761;28;20061;-77
2022/02/28 03:27:36;;;;;;;17.00;6.82;;;;;;;0.90;96.86;103065.31;5035660;28;20364;-77
2022/02/28 03:30:02;;;;;;;11.82;6.60;;;;;;;0.89;96.76;103071.25;5046370;28;20032;-77
2022/02/28 03:32:27;;;;;;;15.13;7.15;;;;;;;0.85;96.76;103067.47;5063930;28;20047;-75
2022/02/28 03:34:53;;;;;;;13.75;7.60;;;;;;;0.85;96.72;103059.69;5056631;28;20025;-76
2022/02/28 03:37:18;;;;;;;11.52;6.07;;;;;;;0.83;96.84;103059.56;5032298;28;20397;-76
2022/02/28 03:39:43;;;;;;;8.45;5.70;;;;;;;0.80;96.79;103066.13;5055530;28;20014;-77
2022/02/28 03:42:09;;;;;;;10.45;6.22;;;;;;;0.77;96.84;103065.84;5067968;28;20044;-77
2022/02/28 03:44:34;;;;;;;10.50;6.38;;;;;;;0.74;97.07;103060.41;5056068;28;20064;-76
2022/02/28 03:47:00;;;;;;;16.30;6.82;;;;;;;0.73;97.74;103062.06;5071650;28;20513;-77
2022/02/28 03:49:25;;;;;;;12.13;6.35;;;;;;;0.72;97.55;103056.72;5046575;28;20049;-78
2022/02/28 03:51:50;;;;;;;14.43;6.45;;;;;;;0.70;97.51;103058.28;5029613;28;20115;-78
2022/02/28 03:54:16;;;;;;;13.35;6.30;;;;;;;0.66;97.30;103055.44;5062697;28;20028;-78
2022/02/28 03:56:42;;;;;;;11.13;6.45;;;;;;;0.66;97.43;103058.00;5053543;28;20040;-78
2022/02/28 03:59:09;;;;;;;14.30;6.97;;;;;;;0.62;97.85;103054.97;5037797;28;20052;-77
2022/02/28 04:01:35;;;;;;;13.32;5.82;;;;;;;0.59;98.04;103053.00;5030584;28;20032;-77
2022/02/28 04:04:01;;;;;;;14.63;7.28;;;;;;;0.58;97.91;103051.19;5048486;28;20472;-76
2022/02/28 04:06:29;;;;;;;13.85;6.85;;;;;;;0.58;98.16;103053.78;5049417;28;20039;-78
2022/02/28 04:08:55;;;;;;;13.23;6.28;;;;;;;0.57;98.12;103051.97;5016163;28;20030;-76
2022/02/28 04:11:20;;;;;;;14.10;7.20;;;;;;;0.55;98.08;103043.13;5023078;28;20112;-77
2022/02/28 04:13:45;;;;;;;12.23;6.13;;;;;;;0.51;98.33;103046.22;5044627;28;20112;-76
2022/02/28 04:16:10;;;;;;;17.40;6.97;;;;;;;0.48;98.39;103051.13;5042797;28;20366;-76
2022/02/28 04:18:36;;;;;;;13.82;6.85;;;;;;;0.47;98.12;103041.50;5044699;28;20548;-78
2022/02/28 04:21:01;;;;;;;11.88;6.82;;;;;;;0.45;98.59;103043.06;5038700;28;20052;-77
2022/02/28 04:23:27;;;;;;;13.02;6.03;;;;;;;0.41;98.65;103035.78;5048587;28;20075;-78
2022/02/28 04:25:52;;;;;;;13.05;6.18;;;;;;;0.42;98.58;103037.56;5061629;28;20035;-75
2022/02/28 04:28:17;;;;;;;14.93;6.60;;;;;;;0.38;98.97;103032.88;5026496;28;20124;-77
2022/02/28 04:30:43;;;;;;;16.40;6.95;;;;;;;0.34;98.67;103036.88;5045404;28;20032;-77
2022/02/28 04:33:08;;;;;;;11.73;6.53;;;;;;;0.31;99.02;103037.50;5048612;28;20056;-78
2022/02/28 04:35:34;;;;;;;17.58;7.50;;;;;;;0.30;99.09;103038.25;5028868;28;20495;-76
2022/02/28 04:38:02;;;;;;;12.18;6.32;;;;;;;0.27;99.23;103031.88;5030185;28;20053;-77
2022/02/28 04:40:27;;;;;;;12.70;6.65;;;;;;;0.26;98.93;103045.59;5059701;28;20391;-77
2022/02/28 04:42:52;;;;;;;10.98;6.03;;;;;;;0.27;99.19;103042.25;5034205;28;20029;-78
2022/02/28 04:45:18;;;;;;;10.18;6.22;;;;;;;0.26;99.14;103036.16;5035580;28;20120;-77
2022/02/28 04:47:43;;;;;;;12.45;6.32;;;;;;;0.25;99.06;103033.44;5029995;28;20045;-76
2022/02/28 04:50:09;;;;;;;12.52;6.15;;;;;;;0.22;99.20;103036.63;5056774;28;20076;-77
2022/02/28 04:52:34;;;;;;;19.52;6.78;;;;;;;0.24;99.59;103032.50;5050178;28;20031;-77
2022/02/28 04:54:59;;;;;;;10.32;5.97;;;;;;;0.23;99.39;103043.66;5061408;28;20043;-76
2022/02/28 04:57:25;;;;;;;15.65;6.05;;;;;;;0.22;99.67;103031.47;5071981;28;20070;-77
2022/02/28 04:59:51;;;;;;;12.10;6.45;;;;;;;0.20;99.48;103032.97;5055316;28;20388;-77
2022/02/28 05:02:16;;;;;;;11.98;5.85;;;;;;;0.20;99.48;103032.97;5045815;28;20025;-76
2022/02/28 05:04:42;;;;;;;12.75;5.68;;;;;;;0.18;99.14;103034.53;5053623;28;20055;-76
2022/02/28 05:07:07;;;;;;;17.90;6.07;;;;;;;0.15;99.06;103037.75;5054960;28;20020;-78
2022/02/28 05:09:33;;;;;;;10.20;5.93;;;;;;;0.14;99.36;103047.94;5065173;28;20491;-77
2022/02/28 05:11:59;;;;;;;12.50;6.40;;;;;;;0.12;99.11;103037.47;5054418;28;20158;-78
2022/02/28 05:14:24;;;;;;;15.02;7.80;;;;;;;0.09;99.23;103036.25;5043686;28;20107;-76
2022/02/28 05:16:50;;;;;;;19.65;6.85;;;;;;;0.07;99.64;103035.19;5072936;28;20044;-76
2022/02/28 05:19:16;;;;;;;10.85;6.15;;;;;;;0.04;99.40;103037.47;5057625;28;20020;-77
2022/02/28 05:21:41;;;;;;;11.48;6.38;;;;;;;0.03;99.92;103035.66;5075935;28;20791;-76
2022/02/28 05:24:06;;;;;;;13.38;6.40;;;;;;;0.02;100.00;103046.78;5052983;28;20025;-77
2022/02/28 05:26:32;;;;;;;12.95;6.47;;;;;;;0.03;100.00;103044.34;5083070;28;20475;-76
2022/02/28 05:28:57;;;;;;;13.45;5.80;;;;;;;0.03;100.00;103040.81;5056318;28;20037;-76
2022/02/28 05:31:22;;;;;;;13.40;5.40;;;;;;;0.01;99.63;103051.03;5051796;28;20036;-78
2022/02/28 05:33:48;;;;;;;12.07;5.88;;;;;;;-0.01;99.93;103047.41;5056486;28;20029;-78
2022/02/28 05:36:13;;;;;;;11.65;6.30;;;;;;;-0.05;99.91;103051.38;5059464;28;20037;-76
2022/02/28 05:38:39;;;;;;;11.38;6.32;;;;;;;-0.07;100.00;103046.81;5047946;28;20037;-75
2022/02/28 05:41:04;;;;;;;10.75;6.20;;;;;;;-0.08;100.00;103048.50;5074971;28;20032;-76
2022/02/28 05:43:30;;;;;;;11.13;6.15;;;;;;;-0.03;100.00;103048.94;5058165;28;20058;-76
2022/02/28 05:45:55;;;;;;;11.00;6.32;;;;;;;-0.07;100.00;103057.16;5054603;28;20369;-76
2022/02/28 05:48:21;;;;;;;12.88;6.10;;;;;;;-0.08;100.00;103056.25;5072624;28;20085;-75
2022/02/28 05:50:46;;;;;;;12.10;6.32;;;;;;;-0.12;100.00;103068.75;5054514;28;20044;-77
2022/02/28 05:53:11;;;;;;;11.20;5.72;;;;;;;-0.13;100.00;103066.94;5056810;28;20086;-76
2022/02/28 05:55:38;;;;;;;13.63;6.07;;;;;;;-0.13;100.00;103065.25;5057010;28;20016;-76
2022/02/28 05:58:03;;;;;;;17.83;6.53;;;;;;;-0.15;100.00;103069.34;5053044;28;20083;-77
2022/02/28 06:00:29;;;;;;;12.45;7.20;;;;;;;-0.13;100.00;103066.94;5059318;28;20075;-77
2022/02/28 06:02:54;;;;;;;15.00;6.20;;;;;;;-0.14;100.00;103073.78;5050016;28;20060;-77
2022/02/28 06:05:20;;;;;;;13.10;7.20;;;;;;;-0.15;100.00;103074.53;5074913;28;20038;-76
2022/02/28 06:07:46;;;;;;;12.80;7.03;;;;;;;-0.20;100.00;103073.22;5068345;28;20028;-77
2022/02/28 06:10:12;;;;;;;11.98;6.35;;;;;;;-0.22;100.00;103079.91;5062520;28;20060;-77
2022/02/28 06:12:38;;;;;;;12.38;6.47;;;;;;;-0.26;100.00;103080.38;5065489;28;20056;-77
2022/02/28 06:15:04;;;;;;;12.30;6.35;;;;;;;-0.27;100.00;103081.13;5075174;28;20093;-77
2022/02/28 06:17:29;;;;;;;10.18;6.07;;;;;;;-0.28;100.00;103076.72;5061140;28;20032;-77
2022/02/28 06:19:55;;;;;;;17.25;6.30;;;;;;;-0.32;100.00;103072.94;5074868;28;20040;-76
2022/02/28 06:22:22;;;;;;;14.70;6.40;;;;;;;-0.33;100.00;103076.28;5067673;28;20073;-77
2022/02/28 06:24:47;;;;;;;12.55;6.65;;;;;;;-0.31;100.00;103079.00;5040722;28;20021;-77
2022/02/28 06:27:13;;;;;;;9.27;6.00;;;;;;;-0.35;100.00;103076.13;5066717;28;20068;-77
2022/02/28 06:29:40;;;;;;;10.68;6.40;;;;;;;-0.32;100.00;103077.19;5061997;28;20037;-77
2022/02/28 06:32:06;;;;;;;15.50;6.15;;;;;;;-0.30;100.00;103075.66;5065288;28;20529;-77
2022/02/28 06:34:31;;;;;;;10.95;6.63;;;;;;;-0.34;100.00;103087.38;5073664;28;20464;-78
2022/02/28 06:36:58;;;;;;;14.13;6.68;;;;;;;-0.33;100.00;103093.47;5058053;28;20025;-78
2022/02/28 06:39:23;;;;;;;11.23;6.13;;;;;;;-0.32;100.00;103090.13;5058731;28;20028;-77
2022/02/28 06:41:49;;;;;;;15.30;7.07;;;;;;;-0.33;100.00;103093.47;5047822;28;20333;-76
2022/02/28 06:44:14;;;;;;;18.70;7.03;;;;;;;-0.31;100.00;103091.94;5070338;28;20037;-77
2022/02/28 06:46:43;;;;;;;13.70;5.78;;;;;;;-0.33;100.00;103089.19;5052096;28;20494;-77
2022/02/28 06:49:08;;;;;;;15.90;6.38;;;;;;;-0.33;100.00;103101.25;5050354;28;20386;-75
2022/02/28 06:51:33;;;;;;;12.80;6.32;;;;;;;-0.31;100.00;103104.88;5064615;28;20020;-76
2022/02/28 06:53:59;;;;;;;15.02;7.32;;;;;;;-0.31;100.00;103099.69;5073980;28;20039;-76
2022/02/28 06:56:24;;;;;;;16.60;6.75;;;;;;;-0.31;100.00;103099.69;5062170;28;20027;-75
2022/02/28 06:58:49;;;;;;;12.60;6.32;;;;;;;-0.30;100.00;103094.66;5044505;28;20025;-75
2022/02/28 07:01:18;;;;;;;15.88;6.35;;;;;;;-0.29;100.00;103101.66;5070203;28;20032;-76
2022/02/28 07:03:45;;;;;;;9.38;5.47;;;;;;;-0.28;100.00;103103.50;5053236;28;20096;-76
2022/02/28 07:06:12;;;;;;;13.55;6.47;;;;;;;-0.27;100.00;103109.56;5065596;28;20024;-73
2022/02/28 07:08:38;;;;;;;10.38;5.93;;;;;;;-0.25;100.00;103100.31;5027888;28;20107;-75
2022/02/28 07:11:03;;;;;;;11.77;6.88;;;;;;;-0.22;100.00;103110.94;5050414;28;20451;-74
2022/02/28 07:13:31;;;;;;;14.30;6.60;;;;;;;-0.20;100.00;103107.75;5054301;28;20091;-74
2022/02/28 07:15:56;;;;;;;12.32;6.18;;;;;;;-0.15;100.00;103109.88;5049830;28;20060;-75
2022/02/28 07:18:22;;;;;;;16.70;6.18;;;;;;;-0.15;100.00;103113.34;5055961;28;20020;-74
2022/02/28 07:20:47;;;;;;;10.75;6.18;;;;;;;-0.14;100.00;103122.94;5070071;28;20437;-73
2022/02/28 07:23:12;;;;;;;12.10;6.40;;;;;;;-0.11;100.00;103119.75;5068110;28;20016;-74
2022/02/28 07:25:38;;;;;;;17.23;6.57;;;;;;;-0.06;100.00;103132.34;5067638;28;20024;-74
2022/02/28 07:28:03;;;;;;;13.68;6.57;;;;;;;-0.04;100.00;103136.03;5069073;28;20112;-74
2022/02/28 07:30:30;;;;;;;12.43;6.05;;;;;;;0.02;100.00;103145.16;5055656;28;20467;-74
2022/02/28 07:32:55;;;;;;;12.55;6.78;;;;;;;0.04;100.00;103141.03;5066536;28;20024;-74
2022/02/28 07:35:21;;;;;;;8.52;6.20;;;;;;;0.08;100.00;103141.47;5038828;28;20029;-74
2022/02/28 07:37:46;;;;;;;14.02;5.95;;;;;;;0.12;100.00;103141.00;5072806;28;20055;-74
2022/02/28 07:40:13;;;;;;;10.73;6.15;;;;;;;0.15;100.00;103142.97;5065279;28;20016;-74
2022/02/28 07:42:38;;;;;;;14.00;6.78;;;;;;;0.18;100.00;103143.28;5052541;28;20047;-73
2022/02/28 07:45:06;;;;;;;14.82;8.25;;;;;;;0.24;100.00;103143.84;5068208;28;20028;-74
2022/02/28 07:47:31;;;;;;;11.43;6.07;;;;;;;0.29;100.00;103147.78;5070793;28;20031;-73
2022/02/28 07:49:56;;;;;;;13.57;6.10;;;;;;;0.33;100.00;103149.00;5052042;28;20682;-74
2022/02/28 07:52:22;;;;;;;13.27;6.18;;;;;;;0.38;100.00;103144.25;5054449;28;20101;-73
2022/02/28 07:54:47;;;;;;;15.75;6.72;;;;;;;0.42;99.97;103146.38;5051588;28;20028;-73
2022/02/28 07:57:13;;;;;;;12.85;6.55;;;;;;;0.47;99.89;103139.94;5055146;28;20498;-74
2022/02/28 07:59:38;;;;;;;11.82;6.47;;;;;;;0.50;99.71;103142.81;5054217;28;20435;-75
2022/02/28 08:02:03;;;;;;;15.50;6.18;;;;;;;0.55;99.67;103141.56;5050416;28;20032;-75
2022/02/28 08:04:29;;;;;;;14.18;8.35;;;;;;;0.57;99.44;103137.47;5043591;28;20070;-74
2022/02/28 08:06:54;;;;;;;12.55;6.95;;;;;;;0.63;99.65;103140.63;5066854;28;20025;-75
2022/02/28 08:09:21;;;;;;;16.08;6.80;;;;;;;0.67;99.68;103132.38;5049471;28;20032;-74
2022/02/28 08:11:47;;;;;;;10.35;6.25;;;;;;;0.74;99.64;103135.53;5046806;28;20081;-74
2022/02/28 08:14:12;;;;;;;14.57;6.80;;;;;;;0.80;99.15;103143.88;5070376;28;20032;-74
2022/02/28 08:16:38;;;;;;;14.70;6.78;;;;;;;0.85;98.97;103147.81;5055151;28;20032;-77
2022/02/28 08:19:03;;;;;;;12.25;6.90;;;;;;;0.91;98.62;103140.63;5062670;28;20037;-74
2022/02/28 08:21:28;;;;;;;12.65;6.72;;;;;;;0.97;98.71;103148.94;5060822;28;20113;-75
2022/02/28 08:23:54;;;;;;;13.27;6.88;;;;;;;1.03;98.60;103142.50;5070425;28;20028;-75
2022/02/28 08:26:19;;;;;;;11.48;6.63;;;;;;;1.12;97.96;103143.38;5055924;28;20032;-74
2022/02/28 08:28:44;;;;;;;13.93;7.43;;;;;;;1.22;96.94;103139.94;5046319;28;20078;-74
2022/02/28 08:31:10;;;;;;;13.02;7.38;;;;;;;1.29;96.51;103132.88;5070006;28;20070;-75
2022/02/28 08:33:35;;;;;;;11.05;7.18;;;;;;;1.42;96.22;103133.97;5047576;28;20055;-77
2022/02/28 08:36:01;;;;;;;17.40;6.97;;;;;;;1.52;95.07;103134.06;5052290;28;20115;-77
2022/02/28 08:38:26;;;;;;;11.38;6.15;;;;;;;1.63;94.63;103133.31;5056161;28;20530;-77
2022/02/28 08:40:52;;;;;;;10.90;6.65;;;;;;;1.73;94.52;103122.06;5069787;28;20493;-77
2022/02/28 08:43:17;;;;;;;11.45;6.45;;;;;;;1.80;93.94;103124.44;5061332;28;20052;-77
2022/02/28 08:45:43;;;;;;;17.67;7.28;;;;;;;1.92;93.60;103119.44;5051760;28;20029;-76
2022/02/28 08:48:08;;;;;;;14.63;7.22;;;;;;;1.99;93.37;103116.63;5055845;28;20111;-76
2022/02/28 08:50:34;;;;;;;11.73;6.97;;;;;;;2.11;92.22;103110.66;5059336;28;20528;-75
2022/02/28 08:53:00;;;;;;;10.77;6.57;;;;;;;2.23;91.19;103106.53;5066720;28;20028;-76
2022/02/28 08:55:25;;;;;;;10.00;6.32;;;;;;;2.35;91.62;103101.50;5055745;28;20028;-77
2022/02/28 08:57:51;;;;;;;12.48;7.32;;;;;;;2.46;90.76;103099.84;5048977;28;20111;-75
2022/02/28 09:00:17;;;;;;;15.68;6.93;;;;;;;2.58;89.48;103090.50;5071183;28;20028;-75
2022/02/28 09:02:43;;;;;;;13.35;6.43;;;;;;;2.73;88.89;103089.94;5049758;28;20040;-77
2022/02/28 09:05:09;;;;;;;15.30;7.30;;;;;;;2.83;87.61;103088.25;5053963;28;20104;-77
2022/02/28 09:07:34;;;;;;;12.75;7.55;;;;;;;2.94;87.29;103083.97;5050418;28;20025;-77
2022/02/28 09:10:00;;;;;;;13.02;6.80;;;;;;;3.09;86.84;103080.84;5062489;28;20091;-75
2022/02/28 09:12:26;;;;;;;12.73;6.90;;;;;;;3.25;86.63;103078.72;5058867;28;20548;-76
2022/02/28 09:14:51;;;;;;;10.82;6.80;;;;;;;3.43;84.86;103074.13;5054695;28;20052;-76
2022/02/28 09:17:17;;;;;;;12.13;6.95;;;;;;;3.63;84.50;103073.13;5073999;28;20024;-75
2022/02/28 09:19:42;;;;;;;11.07;6.43;;;;;;;3.82;84.06;103069.41;5070919;28;20028;-76
2022/02/28 09:22:07;;;;;;;12.93;7.22;;;;;;;4.09;83.27;103072.41;5044695;28;20036;-77
2022/02/28 09:24:34;;;;;;;12.52;6.53;;;;;;;4.51;80.32;103072.22;5053124;28;20032;-76
2022/02/28 09:27:00;;;;;;;13.63;6.30;;;;;;;4.90;78.09;103060.41;5045535;28;20553;-76
2022/02/28 09:29:27;;;;;;;13.73;7.43;;;;;;;5.43;76.85;103060.81;5058391;28;20021;-76
2022/02/28 09:31:52;;;;;;;10.30;6.68;;;;;;;5.96;73.34;103055.91;5066197;28;20039;-76
2022/02/28 09:34:17;;;;;;;9.05;5.43;;;;;;;6.50;69.30;103061.44;5066060;28;20028;-76
2022/02/28 09:36:43;;;;;;;11.20;6.15;;;;;;;6.80;67.04;103046.91;5050301;28;20112;-76
2022/02/28 09:39:08;;;;;;;11.00;5.60;;;;;;;7.24;64.73;103053.28;5065907;28;20091;-74
2022/02/28 09:41:35;;;;;;;9.68;5.90;;;;;;;7.49;60.93;103041.78;5045138;28;20048;-73
2022/02/28 09:44:01;;;;;;;11.32;6.22;;;;;;;7.59;60.13;103036.34;5084769;28;20032;-73
2022/02/28 09:46:28;;;;;;;10.82;6.30;;;;;;;7.88;59.63;103026.81;5055716;28;20021;-74
2022/02/28 09:48:54;;;;;;;9.95;5.85;;;;;;;8.23;57.90;103033.34;5066575;28;20033;-75
2022/02/28 09:51:21;;;;;;;10.15;5.63;;;;;;;8.37;56.72;103028.94;5056057;28;20326;-74
2022/02/28 09:53:46;;;;;;;10.55;6.13;;;;;;;8.51;55.44;103028.09;5065017;28;20025;-75
2022/02/28 09:56:11;;;;;;;8.90;5.88;;;;;;;8.52;55.36;103028.97;5043418;28;20385;-75
2022/02/28 09:58:37;;;;;;;10.30;5.78;;;;;;;8.36;55.50;103033.28;5047488;28;20028;-77
2022/02/28 10:01:03;;;;;;;9.70;5.78;;;;;;;8.61;54.07;103034.78;5065820;28;20017;-78
2022/02/28 10:03:30;;;;;;;8.10;5.65;;;;;;;8.62;54.16;103035.72;5071679;28;20055;-79
2022/02/28 10:05:59;;;;;;;13.13;5.93;;;;;;;8.67;53.70;103031.63;5070049;28;20460;-78
2022/02/28 10:08:26;;;;;;;9.00;5.65;;;;;;;8.82;54.24;103035.19;5075614;28;20082;-78
2022/02/28 10:10:52;;;;;;;10.07;5.63;;;;;;;8.98;53.95;103037.00;5065798;28;20032;-78
2022/02/28 10:13:31;;;;;;;9.38;5.45;;;;;;;9.04;52.17;103047.84;5050163;28;20444;-77
2022/02/28 10:15:57;;;;;;;9.48;6.30;;;;;;;9.04;51.97;103050.47;5043909;28;20060;-77
2022/02/28 10:18:25;;;;;;;8.73;5.75;;;;;;;9.21;51.63;103047.91;5055453;28;20028;-78
2022/02/28 10:20:51;;;;;;;13.57;6.00;;;;;;;9.33;50.27;103040.72;5063874;28;20032;-76
2022/02/28 10:23:16;;;;;;;9.88;5.90;;;;;;;9.27;52.62;103045.66;5061376;28;20028;-78
2022/02/28 10:25:51;;;;;;;14.13;5.45;;;;;;;9.42;51.98;103046.50;5055318;28;20047;-77
2022/02/28 10:28:24;;;;;;;8.98;5.00;;;;;;;9.29;49.18;103046.63;5039406;28;20056;-78
2022/02/28 10:31:04;;;;;;;13.48;5.47;;;;;;;9.48;49.47;103059.09;5068618;28;20060;-78
2022/02/28 10:33:32;;;;;;;8.07;5.47;;;;;;;9.42;49.06;103059.66;5051645;28;20048;-77
2022/02/28 10:36:27;;;;;;;10.77;6.03;;;;;;;9.67;49.61;103062.75;5070264;28;20055;-77
2022/02/28 10:38:56;;;;;;;9.75;5.93;;;;;;;9.86;48.25;103055.09;5056264;28;20089;-76
2022/02/28 10:41:27;;;;;;;10.43;6.18;;;;;;;9.81;48.96;103047.75;5071670;28;20472;-77
2022/02/28 10:43:55;;;;;;;9.05;6.10;;;;;;;10.02;48.70;103048.94;5076990;28;20077;-76
2022/02/28 10:46:26;;;;;;;9.50;5.90;;;;;;;10.33;47.53;103052.31;5058361;28;20120;-77
2022/02/28 10:49:15;;;;;;;10.60;6.07;;;;;;;10.55;46.99;103054.38;5085924;28;20031;-76
2022/02/28 10:51:49;;;;;;;9.70;5.70;;;;;;;10.88;46.53;103049.03;5073545;28;20025;-77
2022/02/28 10:54:21;;;;;;;8.93;6.20;;;;;;;11.14;46.68;103046.00;5044476;28;20389;-77
2022/02/28 10:57:00;;;;;;;8.68;5.90;;;;;;;11.29;44.98;103039.69;5062729;28;20028;-76
2022/02/28 10:59:31;;;;;;;8.52;5.85;;;;;;;11.66;44.47;103041.44;5054201;28;20040;-76
2022/02/28 11:01:57;;;;;;;11.27;5.65;;;;;;;11.53;43.87;103028.50;5066010;28;20025;-76
2022/02/28 11:04:31;;;;;;;12.07;6.05;;;;;;;11.63;44.06;103028.13;5042560;28;20023;-78
2022/02/28 11:06:57;;;;;;;10.32;5.90;;;;;;;12.04;42.67;103029.16;5059854;28;20030;-76
2022/02/28 11:09:35;;;;;;;8.80;5.78;;;;;;;12.42;41.47;103019.41;5072479;28;20027;-76
2022/02/28 11:12:20;;;;;;;11.13;5.70;;;;;;;12.56;41.82;103013.84;5059938;28;20024;-77
2022/02/28 11:14:48;;;;;;;13.85;6.13;;;;;;;12.98;41.30;103020.06;5053998;28;20025;-77
2022/02/28 11:17:47;;;;;;;12.27;6.00;;;;;;;13.06;41.22;103014.19;5054748;28;20036;-77